createdAt,value
2018-04-10T00:00:05.989Z,2.63
2018-04-10T00:02:33.435Z,2.53
2018-04-10T00:05:00.989Z,2.90
2018-04-10T00:07:28.440Z,2.67
2018-04-10T00:09:56.124Z,2.93
2018-04-10T00:12:23.547Z,2.70
2018-04-10T00:14:50.976Z,2.80
2018-04-10T00:17:19.176Z,2.50
2018-04-10T00:19:46.609Z,2.80
2018-04-10T00:22:14.924Z,2.67
2018-04-10T00:24:42.347Z,2.53
2018-04-10T00:27:10.539Z,2.67
2018-04-10T00:29:37.987Z,2.97
2018-04-10T00:32:06.199Z,2.60
2018-04-10T00:34:33.630Z,2.87
2018-04-10T00:37:01.271Z,2.70
2018-04-10T00:39:29.475Z,2.60
2018-04-10T00:41:56.897Z,2.40
2018-04-10T00:44:25.103Z,2.97
2018-04-10T00:46:52.560Z,2.50
2018-04-10T00:49:20.035Z,2.37
2018-04-10T00:51:47.477Z,2.60
2018-04-10T00:54:14.920Z,3.10
2018-04-10T00:56:42.350Z,2.73
2018-04-10T00:59:10.561Z,2.90
2018-04-10T01:01:38.009Z,2.57
2018-04-10T01:04:05.435Z,2.73
2018-04-10T01:06:33.683Z,3.03
2018-04-10T01:09:01.112Z,2.73
2018-04-10T01:11:28.581Z,2.90
2018-04-10T01:13:56.017Z,3.80
2018-04-10T01:16:23.463Z,2.77
2018-04-10T01:18:50.888Z,2.67
2018-04-10T01:21:18.325Z,2.60
2018-04-10T01:23:46.068Z,2.30
2018-04-10T01:26:13.492Z,2.57
2018-04-10T01:28:40.922Z,2.77
2018-04-10T01:31:09.138Z,2.90
2018-04-10T01:33:36.565Z,2.60
2018-04-10T01:36:04.804Z,2.67
2018-04-10T01:38:32.228Z,2.60
2018-04-10T01:40:59.680Z,2.70
2018-04-10T01:43:27.114Z,2.63
2018-04-10T01:45:55.537Z,2.27
2018-04-10T01:48:22.961Z,2.60
2018-04-10T01:50:50.396Z,2.60
2018-04-10T01:53:18.604Z,2.60
2018-04-10T01:55:46.043Z,2.63
2018-04-10T01:58:13.487Z,2.47
2018-04-10T02:00:42.584Z,2.97
2018-04-10T02:03:10.891Z,2.50
2018-04-10T02:05:38.296Z,2.77
2018-04-10T02:08:05.738Z,3.20
2018-04-10T02:10:33.170Z,2.60
2018-04-10T02:13:00.619Z,3.03
2018-04-10T02:15:28.053Z,2.57
2018-04-10T02:17:55.522Z,2.83
2018-04-10T02:20:22.986Z,2.87
2018-04-10T02:22:50.461Z,2.60
2018-04-10T02:25:17.899Z,2.33
2018-04-10T02:27:45.477Z,2.73
2018-04-10T02:30:12.901Z,3.17
2018-04-10T02:32:40.333Z,3.00
2018-04-10T02:35:08.532Z,3.00
2018-04-10T02:37:35.968Z,2.97
2018-04-10T02:40:04.159Z,3.00
2018-04-10T02:42:31.632Z,2.53
2018-04-10T02:44:59.100Z,2.90
2018-04-10T02:47:26.527Z,3.30
2018-04-10T02:49:53.971Z,3.67
2018-04-10T02:52:22.180Z,3.00
2018-04-10T02:54:49.607Z,3.00
2018-04-10T02:57:17.805Z,2.80
2018-04-10T02:59:45.244Z,2.87
2018-04-10T03:02:12.668Z,3.10
2018-04-10T03:04:40.300Z,3.10
2018-04-10T03:07:07.744Z,3.10
2018-04-10T03:09:35.189Z,3.03
2018-04-10T03:12:02.622Z,3.20
2018-04-10T03:14:30.817Z,3.07
2018-04-10T03:16:58.258Z,3.50
2018-04-10T03:19:26.678Z,3.23
2018-04-10T03:21:54.116Z,3.50
2018-04-10T03:24:21.535Z,3.43
2018-04-10T03:26:49.972Z,3.37
2018-04-10T03:29:17.411Z,3.27
2018-04-10T03:31:44.840Z,3.10
2018-04-10T03:34:13.042Z,3.23
2018-04-10T03:36:40.749Z,3.63
2018-04-10T03:39:08.143Z,3.10
2018-04-10T03:41:35.571Z,3.40
2018-04-10T03:44:04.006Z,3.80
2018-04-10T03:46:31.439Z,3.50
2018-04-10T03:48:58.861Z,3.37
2018-04-10T03:51:27.404Z,3.17
2018-04-10T03:53:54.842Z,3.57
2018-04-10T03:56:22.273Z,3.73
2018-04-10T03:58:50.696Z,3.30
2018-04-10T04:01:18.129Z,2.97
2018-04-10T04:03:45.551Z,3.40
2018-04-10T04:06:13.753Z,3.30
2018-04-10T04:08:41.180Z,3.33
2018-04-10T04:11:09.383Z,3.50
2018-04-10T04:13:36.851Z,3.27
2018-04-10T04:16:04.318Z,3.30
2018-04-10T04:21:52.747Z,3.17
2018-04-10T04:24:21.063Z,3.33
2018-04-10T04:26:48.484Z,3.47
2018-04-10T04:29:16.682Z,3.27
2018-04-10T04:31:44.120Z,3.20
2018-04-10T04:34:11.560Z,3.60
2018-04-10T04:36:39.761Z,4.03
2018-04-10T04:39:07.212Z,3.67
2018-04-10T04:41:34.827Z,3.43
2018-04-10T04:44:02.266Z,3.63
2018-04-10T04:46:29.701Z,3.73
2018-04-10T04:48:57.145Z,3.23
2018-04-10T04:51:24.594Z,6.17
2018-04-10T04:53:52.025Z,4.00
2018-04-10T04:56:19.599Z,4.30
2018-04-10T04:58:47.809Z,3.90
2018-04-10T05:01:15.250Z,3.90
2018-04-10T05:03:42.663Z,3.73
2018-04-10T05:06:10.296Z,4.23
2018-04-10T05:08:37.743Z,4.60
2018-04-10T05:11:05.181Z,4.53
2018-04-10T05:13:32.658Z,4.93
2018-04-10T05:16:00.079Z,4.30
2018-04-10T05:18:27.680Z,4.50
2018-04-10T05:20:55.119Z,4.73
2018-04-10T05:23:22.564Z,4.77
2018-04-10T05:25:50.256Z,4.37
2018-04-10T05:28:17.686Z,4.90
2018-04-10T05:30:45.134Z,4.93
2018-04-10T05:33:13.344Z,4.90
2018-04-10T05:35:40.848Z,4.90
2018-04-10T05:38:08.244Z,5.03
2018-04-10T05:40:35.699Z,5.00
2018-04-10T05:43:03.145Z,5.73
2018-04-10T05:45:30.596Z,6.17
2018-04-10T05:47:58.020Z,5.93
2018-04-10T05:50:26.245Z,5.17
2018-04-10T05:52:54.685Z,5.83
2018-04-10T05:55:22.886Z,6.20
2018-04-10T05:57:50.348Z,6.00
2018-04-10T06:00:17.805Z,6.17
2018-04-10T06:02:45.232Z,5.87
2018-04-10T06:05:13.469Z,6.10
2018-04-10T06:07:40.927Z,6.00
2018-04-10T06:10:08.365Z,5.93
2018-04-10T06:12:36.016Z,7.17
2018-04-10T06:15:03.444Z,7.50
2018-04-10T06:17:31.847Z,7.23
2018-04-10T06:19:59.334Z,7.23
2018-04-10T06:22:26.776Z,6.90
2018-04-10T06:24:54.441Z,6.73
2018-04-10T06:27:21.867Z,7.53
2018-04-10T06:29:49.308Z,6.83
2018-04-10T06:32:17.548Z,8.43
2018-04-10T06:34:44.981Z,8.73
2018-04-10T06:37:12.459Z,8.97
2018-04-10T06:39:39.863Z,9.23
2018-04-10T06:42:07.329Z,9.57
2018-04-10T06:44:34.831Z,9.73
2018-04-10T06:47:02.483Z,9.63
2018-04-10T06:49:29.916Z,9.00
2018-04-10T06:51:57.360Z,10.93
2018-04-10T06:54:24.834Z,9.93
2018-04-10T06:56:52.264Z,10.63
2018-04-10T06:59:19.741Z,9.80
2018-04-10T07:01:47.193Z,10.37
2018-04-10T07:04:14.700Z,12.13
2018-04-10T07:06:42.133Z,14.63
2018-04-10T07:09:09.594Z,15.03
2018-04-10T07:11:37.028Z,14.20
2018-04-10T07:14:04.710Z,15.60
2018-04-10T07:16:32.680Z,13.37
2018-04-10T07:19:00.116Z,21.67
2018-04-10T07:21:27.568Z,17.00
2018-04-10T07:23:55.032Z,14.60
2018-04-10T07:26:22.506Z,14.33
2018-04-10T07:28:49.941Z,15.47
2018-04-10T07:31:17.512Z,15.10
2018-04-10T07:33:44.954Z,15.77
2018-04-10T07:36:12.388Z,16.30
2018-04-10T07:38:39.838Z,10.80
2018-04-10T07:41:08.053Z,15.37
2018-04-10T07:43:35.493Z,14.57
2018-04-10T07:46:02.957Z,13.70
2018-04-10T07:48:31.144Z,17.30
2018-04-10T07:50:58.586Z,15.57
2018-04-10T07:53:26.025Z,16.10
2018-04-10T07:55:53.472Z,15.43
2018-04-10T07:58:20.908Z,14.60
2018-04-10T08:00:48.382Z,16.80
2018-04-10T08:03:15.792Z,16.50
2018-04-10T08:05:43.244Z,16.07
2018-04-10T08:08:11.632Z,18.27
2018-04-10T08:10:39.090Z,19.07
2018-04-10T08:13:06.541Z,18.03
2018-04-10T08:15:33.981Z,19.00
2018-04-10T08:18:01.457Z,17.43
2018-04-10T08:20:28.883Z,17.10
2018-04-10T08:22:56.340Z,16.50
2018-04-10T08:25:23.784Z,16.93
2018-04-10T08:27:51.269Z,17.13
2018-04-10T08:30:18.705Z,18.50
2018-04-10T08:32:46.148Z,17.70
2018-04-10T08:35:14.364Z,17.90
2018-04-10T08:37:41.821Z,17.27
2018-04-10T08:40:09.264Z,16.47
2018-04-10T08:42:36.705Z,17.20
2018-04-10T08:45:04.514Z,16.13
2018-04-10T08:47:31.968Z,16.13
2018-04-10T08:49:59.408Z,15.10
2018-04-10T08:52:26.864Z,16.90
2018-04-10T08:54:54.297Z,17.53
2018-04-10T08:57:21.760Z,16.80
2018-04-10T08:59:49.209Z,17.57
2018-04-10T09:02:16.647Z,19.90
2018-04-10T09:04:44.950Z,14.47
2018-04-10T09:07:12.492Z,16.23
2018-04-10T09:09:39.932Z,16.13
2018-04-10T09:12:08.360Z,16.37
2018-04-10T09:17:09.829Z,14.93
2018-04-10T09:19:37.272Z,15.90
2018-04-10T09:22:04.743Z,14.20
2018-04-10T09:24:32.189Z,15.30
2018-04-10T09:26:59.663Z,15.57
2018-04-10T09:29:27.118Z,15.10
2018-04-10T09:31:54.569Z,13.70
2018-04-10T09:34:22.026Z,14.77
2018-04-10T09:36:49.486Z,12.90
2018-04-10T09:39:17.063Z,14.37
2018-04-10T09:41:44.496Z,14.63
2018-04-10T09:44:11.938Z,14.30
2018-04-10T09:46:39.402Z,14.30
2018-04-10T09:49:06.833Z,14.43
2018-04-10T09:51:34.277Z,13.33
2018-04-10T09:54:02.513Z,13.57
2018-04-10T09:56:29.988Z,10.87
2018-04-10T09:58:57.412Z,12.50
2018-04-10T10:01:24.871Z,13.43
2018-04-10T10:03:52.320Z,14.17
2018-04-10T10:06:19.771Z,13.93
2018-04-10T10:08:47.225Z,12.83
2018-04-10T10:11:14.681Z,11.00
2018-04-10T10:13:42.151Z,11.93
2018-04-10T10:16:09.667Z,12.43
2018-04-10T10:18:37.904Z,35.70
2018-04-10T10:21:05.349Z,93.63
2018-04-10T10:23:32.908Z,15.97
2018-04-10T10:26:00.366Z,12.30
2018-04-10T10:28:27.780Z,12.07
2018-04-10T10:30:55.233Z,12.33
2018-04-10T10:33:22.664Z,11.63
2018-04-10T10:35:50.100Z,11.37
2018-04-10T10:38:18.319Z,12.70
2018-04-10T10:40:45.750Z,11.20
2018-04-10T10:43:13.196Z,10.40
2018-04-10T10:45:40.628Z,10.40
2018-04-10T10:48:08.081Z,9.47
2018-04-10T10:50:35.536Z,27.90
2018-04-10T10:53:02.956Z,12.90
2018-04-10T10:55:30.415Z,13.57
2018-04-10T10:57:57.856Z,15.13
2018-04-10T11:00:26.096Z,17.00
2018-04-10T11:02:53.541Z,18.30
2018-04-10T11:05:20.968Z,18.53
2018-04-10T11:07:48.491Z,17.07
2018-04-10T11:10:15.916Z,17.13
2018-04-10T11:12:43.353Z,26.33
2018-04-10T11:15:10.808Z,18.93
2018-04-10T11:17:38.244Z,20.33
2018-04-10T11:20:05.948Z,18.00
2018-04-10T11:22:33.392Z,21.10
2018-04-10T11:25:00.880Z,39.53
2018-04-10T11:27:28.331Z,17.60
2018-04-10T11:29:55.780Z,18.47
2018-04-10T11:32:23.212Z,16.53
2018-04-10T11:34:50.657Z,16.97
2018-04-10T11:37:18.109Z,17.13
2018-04-10T11:39:45.568Z,15.10
2018-04-10T11:42:13.028Z,33.77
2018-04-10T11:44:41.248Z,17.93
2018-04-10T11:47:08.680Z,18.10
2018-04-10T11:49:36.146Z,17.73
2018-04-10T11:52:03.595Z,18.67
2018-04-10T11:54:31.061Z,17.57
2018-04-10T11:56:58.552Z,18.03
2018-04-10T11:59:25.993Z,40.83
2018-04-10T12:01:54.956Z,21.50
2018-04-10T12:04:22.416Z,16.90
2018-04-10T12:06:49.857Z,16.37
2018-04-10T12:09:17.311Z,16.00
2018-04-10T12:11:44.761Z,16.57
2018-04-10T12:14:12.224Z,16.83
2018-04-10T12:16:39.810Z,18.17
2018-04-10T12:19:07.274Z,18.27
2018-04-10T12:21:34.704Z,18.13
2018-04-10T12:24:02.351Z,18.20
2018-04-10T12:26:29.794Z,17.17
2018-04-10T12:28:57.993Z,19.00
2018-04-10T12:31:25.432Z,19.10
2018-04-10T12:33:52.883Z,18.63
2018-04-10T12:36:20.324Z,19.10
2018-04-10T12:38:48.540Z,17.73
2018-04-10T12:41:15.976Z,18.37
2018-04-10T12:43:43.430Z,17.47
2018-04-10T12:46:11.029Z,19.10
2018-04-10T12:48:38.472Z,17.93
2018-04-10T12:51:05.912Z,18.30
2018-04-10T12:53:33.396Z,15.90
2018-04-10T12:56:00.869Z,16.80
2018-04-10T12:58:28.288Z,16.47
2018-04-10T13:00:55.762Z,16.70
2018-04-10T13:03:23.195Z,15.87
2018-04-10T13:05:50.645Z,15.73
2018-04-10T13:08:18.089Z,15.60
2018-04-10T13:10:46.306Z,15.43
2018-04-10T13:13:13.759Z,15.30
2018-04-10T13:15:41.243Z,13.67
2018-04-10T13:18:08.784Z,14.77
2018-04-10T13:20:36.243Z,12.93
2018-04-10T13:23:03.668Z,13.10
2018-04-10T13:25:31.111Z,15.73
2018-04-10T13:27:58.555Z,13.03
2018-04-10T13:30:26.766Z,12.80
2018-04-10T13:32:54.205Z,11.73
2018-04-10T13:35:21.660Z,10.30
2018-04-10T13:37:49.107Z,8.70
2018-04-10T13:40:17.833Z,8.47
2018-04-10T13:42:45.277Z,8.60
2018-04-10T13:45:12.737Z,8.20
2018-04-10T13:47:40.213Z,6.73
2018-04-10T13:50:07.680Z,7.50
2018-04-10T13:52:35.112Z,7.20
2018-04-10T13:55:02.790Z,7.20
2018-04-10T13:57:30.231Z,7.67
2018-04-10T13:59:57.670Z,6.20
2018-04-10T14:02:25.113Z,6.37
2018-04-10T14:04:53.339Z,5.17
2018-04-10T14:07:20.772Z,4.30
2018-04-10T14:09:48.327Z,4.90
2018-04-10T14:12:15.758Z,4.40
2018-04-10T14:14:43.955Z,4.43
2018-04-10T14:17:11.401Z,3.70
2018-04-10T14:19:38.827Z,4.00
2018-04-10T14:22:06.275Z,4.30
2018-04-10T14:24:33.704Z,3.40
2018-04-10T14:27:01.140Z,20.10
2018-04-10T14:29:28.584Z,3.90
2018-04-10T14:31:56.020Z,3.80
2018-04-10T14:34:24.248Z,3.83
2018-04-10T14:36:51.721Z,3.13
2018-04-10T14:39:19.136Z,3.00
2018-04-10T14:41:46.559Z,2.43
2018-04-10T14:44:14.773Z,3.13
2018-04-10T14:46:42.215Z,9.53
2018-04-10T14:49:09.648Z,8.93
2018-04-10T14:51:37.881Z,4.83
2018-04-10T14:54:05.329Z,4.53
2018-04-10T14:56:32.876Z,4.60
2018-04-10T14:59:00.303Z,4.30
2018-04-10T15:01:28.492Z,4.03
2018-04-10T15:03:55.941Z,3.87
2018-04-10T15:06:23.377Z,4.00
2018-04-10T15:08:51.577Z,2.80
2018-04-10T15:11:19.012Z,2.93
2018-04-10T15:13:47.232Z,3.90
2018-04-10T15:16:14.676Z,3.73
2018-04-10T15:18:42.129Z,3.70
2018-04-10T15:21:09.716Z,3.80
2018-04-10T15:23:37.168Z,3.20
2018-04-10T15:26:04.593Z,3.73
2018-04-10T15:28:32.027Z,3.63
2018-04-10T15:31:00.244Z,3.07
2018-04-10T15:33:27.685Z,2.77
2018-04-10T15:35:55.117Z,2.83
2018-04-10T15:38:23.324Z,2.73
2018-04-10T15:40:50.747Z,2.77
2018-04-10T15:43:18.949Z,2.40
2018-04-10T15:45:46.393Z,2.20
2018-04-10T15:48:13.834Z,1.80
2018-04-10T15:50:42.052Z,1.53
2018-04-10T15:53:09.486Z,1.90
2018-04-10T15:55:36.932Z,2.10
2018-04-10T15:58:04.387Z,2.23
2018-04-10T16:00:32.601Z,2.00
2018-04-10T16:03:00.043Z,2.33
2018-04-10T16:05:27.500Z,2.47
2018-04-10T16:07:54.921Z,2.37
2018-04-10T16:10:23.200Z,2.40
2018-04-10T16:12:51.436Z,2.43
2018-04-10T16:15:18.875Z,2.63
2018-04-10T16:17:46.381Z,3.27
2018-04-10T16:20:13.827Z,3.03
2018-04-10T16:22:41.559Z,3.40
2018-04-10T16:25:08.994Z,2.93
2018-04-10T16:27:36.425Z,3.00
2018-04-10T16:30:04.629Z,3.07
2018-04-10T16:32:32.078Z,2.90
2018-04-10T16:34:59.510Z,2.40
2018-04-10T16:37:28.732Z,3.00
2018-04-10T16:39:56.197Z,3.30
2018-04-10T16:42:23.669Z,2.73
2018-04-10T16:44:52.104Z,2.73
2018-04-10T16:47:20.308Z,3.23
2018-04-10T16:49:47.749Z,3.43
2018-04-10T16:52:15.188Z,3.07
2018-04-10T16:54:43.399Z,2.90
2018-04-10T16:57:10.831Z,3.10
2018-04-10T16:59:38.256Z,2.77
2018-04-10T17:02:05.697Z,2.73
2018-04-10T17:04:33.137Z,2.83
2018-04-10T17:07:00.573Z,2.70
2018-04-10T17:09:27.999Z,2.33
2018-04-10T17:11:56.294Z,2.03
2018-04-10T17:14:24.492Z,2.13
2018-04-10T17:16:51.925Z,2.27
2018-04-10T17:19:19.381Z,2.60
2018-04-10T17:21:46.862Z,2.40
2018-04-10T17:24:14.313Z,2.77
2018-04-10T17:26:41.745Z,2.30
2018-04-10T17:29:09.209Z,2.30
2018-04-10T17:31:37.396Z,2.43
2018-04-10T17:34:04.825Z,2.47
2018-04-10T17:36:32.272Z,2.73
2018-04-10T17:39:00.474Z,2.27
2018-04-10T17:41:27.892Z,2.13
2018-04-10T17:43:56.113Z,2.13
2018-04-10T17:46:23.551Z,2.40
2018-04-10T17:48:51.755Z,2.50
2018-04-10T17:51:19.203Z,2.63
2018-04-10T17:53:46.633Z,2.10
2018-04-10T17:56:14.067Z,2.30
2018-04-10T17:58:41.495Z,2.50
2018-04-10T18:01:08.945Z,2.63
2018-04-10T18:06:32.105Z,3.00
2018-04-10T18:08:59.633Z,2.33
2018-04-10T18:11:27.884Z,3.03
2018-04-10T18:13:55.414Z,6.03
2018-04-10T18:16:22.942Z,3.53
2018-04-10T18:18:50.446Z,2.70
2018-04-10T18:21:17.901Z,2.80
2018-04-10T18:23:45.365Z,2.73
2018-04-10T18:26:13.705Z,2.90
2018-04-10T18:28:41.198Z,3.43
2018-04-10T18:31:08.692Z,2.57
2018-04-10T18:33:36.232Z,2.57
2018-04-10T18:36:03.907Z,2.73
2018-04-10T18:38:31.430Z,2.50
2018-04-10T18:40:58.946Z,2.57
2018-04-10T18:43:26.749Z,2.80
2018-04-10T18:45:54.230Z,2.70
2018-04-10T18:48:21.747Z,2.60
2018-04-10T18:50:49.293Z,2.80
2018-04-10T18:53:17.308Z,2.87
2018-04-10T18:55:44.819Z,3.07
2018-04-10T18:58:12.435Z,3.30
2018-04-10T19:00:39.989Z,3.10
2018-04-10T19:03:07.750Z,2.87
2018-04-10T19:05:35.238Z,3.10
2018-04-10T19:08:02.728Z,2.73
2018-04-10T19:10:30.233Z,3.00
2018-04-10T19:12:57.758Z,3.33
2018-04-10T19:15:27.555Z,3.53
2018-04-10T19:17:55.103Z,3.17
2018-04-10T19:20:22.658Z,4.40
2018-04-10T19:22:50.199Z,4.60
2018-04-10T19:25:17.721Z,5.97
2018-04-10T19:27:45.233Z,6.47
2018-04-10T19:30:12.831Z,7.17
2018-04-10T19:32:40.574Z,8.10
2018-04-10T19:35:08.838Z,7.80
2018-04-10T19:37:36.390Z,7.37
2018-04-10T19:40:03.940Z,7.20
2018-04-10T19:42:31.483Z,7.43
2018-04-10T19:44:59.057Z,7.53
2018-04-10T19:47:26.549Z,6.90
2018-04-10T19:49:54.123Z,6.40
2018-04-10T19:52:21.635Z,6.07
2018-04-10T19:54:49.272Z,6.47
2018-04-10T19:57:26.680Z,5.93
2018-04-10T20:02:26.569Z,5.33
2018-04-10T20:04:54.784Z,5.00
2018-04-10T20:07:22.223Z,5.17
2018-04-10T20:09:49.673Z,4.53
2018-04-10T20:12:17.914Z,4.20
2018-04-10T20:14:45.380Z,3.70
2018-04-10T20:17:13.026Z,3.67
2018-04-10T20:19:40.453Z,3.27
2018-04-10T20:22:07.904Z,3.63
2018-04-10T20:24:35.340Z,3.43
2018-04-10T20:27:02.808Z,3.20
2018-04-10T20:29:30.239Z,3.37
2018-04-10T20:31:58.468Z,3.23
2018-04-10T20:34:26.191Z,3.30
2018-04-10T20:36:53.632Z,3.40
2018-04-10T20:39:21.834Z,3.20
2018-04-10T20:41:49.273Z,3.60
2018-04-10T20:44:16.735Z,3.93
2018-04-10T20:46:44.174Z,3.57
2018-04-10T20:49:11.641Z,4.20
2018-04-10T20:51:39.868Z,4.17
2018-04-10T20:54:07.336Z,4.93
2018-04-10T20:56:35.035Z,4.43
2018-04-10T20:59:03.228Z,5.07
2018-04-10T21:01:30.665Z,5.17
2018-04-10T21:03:58.881Z,5.60
2018-04-10T21:06:26.328Z,4.90
2018-04-10T21:08:53.794Z,4.87
2018-04-10T21:11:21.245Z,5.60
2018-04-10T21:13:48.676Z,5.73
2018-04-10T21:16:16.125Z,5.80
2018-04-10T21:18:44.323Z,5.83
2018-04-10T21:21:11.754Z,6.40
2018-04-10T21:23:39.981Z,6.40
2018-04-10T21:26:07.637Z,6.27
2018-04-10T21:28:35.078Z,7.20
2018-04-10T21:31:02.571Z,7.07
2018-04-10T21:33:30.221Z,7.20
2018-04-10T21:35:57.654Z,7.30
2018-04-10T21:38:25.086Z,6.63
2018-04-10T21:40:53.287Z,6.23
2018-04-10T21:43:26.485Z,7.87
2018-04-10T21:45:53.941Z,8.03
2018-04-10T21:48:21.390Z,7.27
2018-04-10T21:50:48.829Z,7.60
2018-04-10T21:53:16.282Z,8.30
2018-04-10T21:55:43.729Z,7.90
2018-04-10T21:58:11.942Z,8.03
2018-04-10T22:00:39.386Z,8.03
2018-04-10T22:03:07.029Z,6.60
2018-04-10T22:05:34.464Z,8.07
2018-04-10T22:08:02.676Z,7.77
2018-04-10T22:10:30.126Z,7.40
2018-04-10T22:12:57.602Z,7.87
2018-04-10T22:15:25.025Z,7.60
2018-04-10T22:17:52.509Z,8.07
2018-04-10T22:20:19.901Z,7.47
2018-04-10T22:22:47.348Z,6.87
2018-04-10T22:25:14.827Z,8.03
2018-04-10T22:27:42.253Z,8.00
2018-04-10T22:30:09.689Z,8.67
2018-04-10T22:32:37.109Z,8.47
2018-04-10T22:35:04.542Z,7.27
2018-04-10T22:37:32.764Z,8.53
2018-04-10T22:40:00.210Z,7.73
2018-04-10T22:42:27.648Z,7.43
2018-04-10T22:44:55.089Z,8.40
2018-04-10T22:47:23.289Z,8.20
2018-04-10T22:49:50.740Z,9.07
2018-04-10T22:52:18.179Z,8.47
2018-04-10T22:54:45.614Z,7.87
2018-04-10T22:57:13.813Z,8.03
2018-04-10T22:59:41.259Z,8.47
2018-04-10T23:02:09.469Z,8.67
2018-04-10T23:04:36.908Z,9.83
2018-04-10T23:07:04.360Z,9.33
2018-04-10T23:09:32.561Z,8.93
2018-04-10T23:12:00.027Z,9.83
2018-04-10T23:14:27.708Z,9.83
2018-04-10T23:16:55.156Z,9.77
2018-04-10T23:19:22.589Z,10.07
2018-04-10T23:21:50.029Z,9.43
2018-04-10T23:35:43.308Z,11.83
2018-04-10T23:38:10.775Z,12.57
2018-04-10T23:40:38.222Z,12.77
2018-04-10T23:43:05.656Z,12.70
2018-04-10T23:45:33.878Z,14.57
2018-04-10T23:48:01.546Z,15.17
2018-04-10T23:50:28.982Z,16.37
2018-04-10T23:52:56.412Z,13.33
2018-04-10T23:55:23.927Z,15.03
2018-04-10T23:57:52.393Z,14.53
